Time;durP1;ratioP1;P1;durP2;ratioP2;P2;SDS_P1;SDS_P2;PMS_P1;PMS_P2;Temp;Humidity;BMP_temperature;BMP_pressure;BME280_temperature;BME280_humidity;BME280_pressure;Samples;Min_cycle;Max_cycle;Signal;HPM_P1;HPM_P2
2021/08/29 08:42:26;;;;;;;13.57;5.07;;;18.70;99.90;;;;;;12017603;27;20836;-53
2021/08/29 08:48:13;;;;;;;18.55;5.18;;;19.00;99.90;;;;;;11969992;28;20064;-53
2021/08/29 08:54:02;;;;;;;10.27;5.13;;;19.50;99.90;;;;;;11955163;28;20046;-54
2021/08/29 08:59:51;;;;;;;20.55;7.20;;;20.00;99.90;;;;;;11998327;28;20524;-53
2021/08/29 09:05:39;;;;;;;11.25;5.80;;;20.30;99.90;;;;;;12007306;28;20495;-56
2021/08/29 09:11:26;;;;;;;14.00;5.15;;;20.40;99.90;;;;;;12006873;28;20041;-55
2021/08/29 09:17:41;;;;;;;42.55;21.33;;;20.40;99.80;;;;;;12006904;28;20053;-53
2021/08/29 09:23:30;;;;;;;13.43;6.20;;;20.50;99.60;;;;;;11992665;28;20041;-53
2021/08/29 09:29:23;;;;;;;9.35;4.38;;;20.60;98.30;;;;;;11981857;28;20477;-52
2021/08/29 09:35:12;;;;;;;9.13;3.53;;;20.80;97.50;;;;;;11981193;28;20043;-52
2021/08/29 09:40:59;;;;;;;13.98;4.70;;;20.80;97.50;;;;;;11991053;28;20041;-54
2021/08/29 09:46:53;;;;;;;7.93;3.30;;;20.90;97.30;;;;;;11972772;28;20061;-55
2021/08/29 09:52:41;;;;;;;8.60;3.55;;;21.20;96.90;;;;;;11946966;28;20811;-56
2021/08/29 09:58:31;;;;;;;6.70;3.10;;;21.40;96.10;;;;;;11942875;28;20075;-53
2021/08/29 10:04:20;;;;;;;6.35;3.05;;;21.70;95.60;;;;;;11935113;28;20045;-52
2021/08/29 10:10:25;;;;;;;8.90;3.47;;;21.60;95.30;;;;;;11948853;28;20595;-53
2021/08/29 10:16:13;;;;;;;10.55;3.33;;;21.90;94.40;;;;;;11942401;28;20069;-53
2021/08/29 10:22:01;;;;;;;8.00;3.17;;;22.00;94.00;;;;;;11942279;28;20053;-53
2021/08/29 10:27:56;;;;;;;8.70;3.10;;;22.00;94.00;;;;;;11936780;28;20061;-51
2021/08/29 10:33:47;;;;;;;6.18;2.95;;;22.10;93.50;;;;;;11934489;28;20061;-51
2021/08/29 10:39:36;;;;;;;12.15;3.25;;;21.90;92.80;;;;;;11938117;28;20095;-53
2021/08/29 10:45:24;;;;;;;8.55;3.45;;;21.60;92.90;;;;;;11935250;28;20099;-54
2021/08/29 10:51:12;;;;;;;9.18;3.53;;;21.60;93.10;;;;;;11935705;28;20068;-56
2021/08/29 10:57:20;;;;;;;6.47;3.78;;;21.60;93.50;;;;;;11934091;28;20041;-55
2021/08/29 11:03:28;;;;;;;7.90;3.72;;;21.50;93.00;;;;;;11910406;28;20052;-51
2021/08/29 11:09:45;;;;;;;11.93;6.63;;;21.70;93.30;;;;;;11910242;28;20500;-53
2021/08/29 11:15:38;;;;;;;9.82;3.80;;;22.00;93.40;;;;;;11885469;28;20526;-54
2021/08/29 11:21:26;;;;;;;6.13;4.03;;;22.20;92.10;;;;;;11886539;28;20046;-55
2021/08/29 11:27:47;;;;;;;6.25;3.60;;;22.50;92.10;;;;;;11935578;28;21209;-51
2021/08/29 11:33:34;;;;;;;8.43;3.70;;;22.80;91.40;;;;;;11929221;28;20053;-51
2021/08/29 11:39:34;;;;;;;192.45;121.65;;;22.80;90.80;;;;;;11930836;28;20717;-53
2021/08/29 11:45:23;;;;;;;8.18;4.75;;;22.80;90.50;;;;;;11933252;28;20061;-61
2021/08/29 11:51:10;;;;;;;7.68;3.85;;;22.90;90.50;;;;;;11910318;28;20076;-61
2021/08/29 11:56:58;;;;;;;8.13;4.53;;;22.90;89.40;;;;;;11885164;28;20068;-54
2021/08/29 12:02:46;;;;;;;7.72;3.78;;;22.60;90.30;;;;;;11922157;28;20107;-55
2021/08/29 12:08:39;;;;;;;7.32;3.78;;;22.50;90.60;;;;;;11925438;28;20528;-56
2021/08/29 12:14:28;;;;;;;9.48;3.63;;;22.30;91.10;;;;;;11916801;28;20051;-57
2021/08/29 12:20:16;;;;;;;4.25;3.17;;;22.10;91.50;;;;;;11930682;28;20052;-56
2021/08/29 12:26:07;;;;;;;6.78;4.07;;;22.10;91.40;;;;;;11918787;28;20045;-57
2021/08/29 12:32:07;;;;;;;4.57;3.17;;;22.10;90.80;;;;;;11883375;28;20061;-56
2021/08/29 12:37:55;;;;;;;8.98;3.47;;;22.00;90.40;;;;;;11917953;28;20093;-57
2021/08/29 12:43:42;;;;;;;8.20;3.42;;;21.70;90.60;;;;;;11924235;28;20049;-55
2021/08/29 12:49:31;;;;;;;4.30;3.17;;;21.50;91.20;;;;;;11917286;28;20048;-54
2021/08/29 12:55:20;;;;;;;7.82;2.75;;;21.60;91.00;;;;;;11911070;28;20537;-56
2021/08/29 13:01:10;;;;;;;6.07;3.05;;;21.50;90.60;;;;;;11874258;28;20050;-56
2021/08/29 13:07:06;;;;;;;6.03;3.08;;;21.90;90.00;;;;;;11902756;28;20111;-52
2021/08/29 13:13:04;;;;;;;4.40;2.67;;;22.10;88.80;;;;;;11916416;28;20057;-55
2021/08/29 13:19:00;;;;;;;4.43;2.85;;;22.50;87.10;;;;;;11885543;28;20537;-57
2021/08/29 13:24:48;;;;;;;6.53;3.20;;;22.70;87.30;;;;;;11908139;28;20049;-56
2021/08/29 13:30:36;;;;;;;59.03;35.97;;;22.80;87.70;;;;;;11912335;28;20101;-56
2021/08/29 13:36:23;;;;;;;7.65;4.65;;;22.90;87.30;;;;;;11904106;28;20054;-56
2021/08/29 13:42:22;;;;;;;4.70;3.05;;;23.00;87.00;;;;;;11954998;28;20060;-58
2021/08/29 13:48:10;;;;;;;5.97;3.67;;;23.10;87.60;;;;;;11911651;28;20054;-53
2021/08/29 13:53:57;;;;;;;8.68;4.00;;;22.80;87.60;;;;;;11929414;28;20041;-53
2021/08/29 13:59:45;;;;;;;3.75;3.10;;;22.80;88.50;;;;;;11929004;28;20414;-56
2021/08/29 14:05:33;;;;;;;7.28;3.38;;;22.90;87.50;;;;;;11932584;28;20052;-54
2021/08/29 14:11:20;;;;;;;5.60;3.30;;;22.90;87.60;;;;;;11938450;28;20053;-55
2021/08/29 14:17:08;;;;;;;11.32;3.25;;;22.60;84.40;;;;;;11927583;28;20045;-55
2021/08/29 14:22:55;;;;;;;6.38;3.22;;;22.60;84.70;;;;;;11927444;28;20061;-56
2021/08/29 14:28:42;;;;;;;7.43;3.22;;;22.70;84.80;;;;;;11931563;28;20144;-54
2021/08/29 14:34:31;;;;;;;7.57;3.88;;;22.80;83.90;;;;;;11935438;28;20056;-55
2021/08/29 14:40:18;;;;;;;6.53;4.05;;;22.70;84.30;;;;;;11934159;28;20053;-55
2021/08/29 14:46:05;;;;;;;5.32;3.92;;;22.40;84.30;;;;;;11932380;28;20045;-54
2021/08/29 14:51:53;;;;;;;243.52;166.40;;;22.70;85.10;;;;;;11886195;28;20057;-57
2021/08/29 14:57:40;;;;;;;7.63;4.70;;;22.90;84.60;;;;;;11935068;28;20049;-58
2021/08/29 15:03:27;;;;;;;5.10;3.40;;;23.10;82.50;;;;;;11930064;28;20053;-53
2021/08/29 15:09:25;;;;;;;4.22;3.50;;;22.90;81.10;;;;;;11910878;28;20100;-58
2021/08/29 15:15:12;;;;;;;6.57;3.72;;;22.90;82.00;;;;;;11929512;28;20041;-58
2021/08/29 15:20:59;;;;;;;5.38;3.50;;;22.80;82.80;;;;;;11926884;28;20042;-53
2021/08/29 15:26:48;;;;;;;5.63;3.53;;;22.60;84.20;;;;;;11925749;28;20046;-56
2021/08/29 15:32:35;;;;;;;2.53;1.98;;;22.20;86.20;;;;;;11926373;28;20045;-59
2021/08/29 15:38:22;;;;;;;4.95;2.22;;;22.20;86.40;;;;;;11925802;28;20053;-58
2021/08/29 15:44:11;;;;;;;4.10;2.10;;;22.40;86.10;;;;;;11883642;28;20536;-55
2021/08/29 15:49:58;;;;;;;3.25;2.20;;;22.50;86.00;;;;;;11877377;28;20076;-59
2021/08/29 15:55:45;;;;;;;5.03;2.55;;;22.70;84.80;;;;;;11942186;28;20061;-57
2021/08/29 16:01:34;;;;;;;4.80;2.15;;;22.30;85.30;;;;;;11927586;28;20339;-58
2021/08/29 16:07:21;;;;;;;8.68;2.40;;;22.00;86.10;;;;;;11930126;28;20045;-57
2021/08/29 16:13:09;;;;;;;6.28;2.60;;;21.70;86.10;;;;;;11933347;28;20149;-56
2021/08/29 16:18:57;;;;;;;6.15;2.70;;;21.90;86.90;;;;;;11904224;28;20054;-60
2021/08/29 16:24:44;;;;;;;5.15;2.63;;;22.00;86.00;;;;;;11957009;28;20061;-57
2021/08/29 16:30:31;;;;;;;7.10;2.75;;;22.20;85.70;;;;;;11966012;28;20045;-58
2021/08/29 16:36:34;;;;;;;8.63;4.28;;;22.50;86.00;;;;;;11943124;28;20052;-57
2021/08/29 16:42:22;;;;;;;10.07;3.45;;;22.50;85.20;;;;;;11941239;28;20045;-61
2021/08/29 16:48:09;;;;;;;9.98;2.90;;;22.90;84.60;;;;;;11918000;28;20053;-60
2021/08/29 16:54:12;;;;;;;7.22;2.20;;;22.90;84.30;;;;;;11921785;28;20417;-57
2021/08/29 17:00:00;;;;;;;;;;;22.90;85.10;;;;;;11931891;28;20735;-52
2021/08/29 17:05:47;;;;;;;6.13;2.40;;;22.90;85.10;;;;;;11895551;28;20016;-54
2021/08/29 17:11:35;;;;;;;7.28;2.55;;;22.70;84.30;;;;;;11906894;28;20140;-53
2021/08/29 17:17:22;;;;;;;5.68;2.33;;;23.00;83.70;;;;;;11938897;28;20049;-55
2021/08/29 17:23:09;;;;;;;6.00;2.45;;;23.20;83.40;;;;;;11937766;28;20049;-54
2021/08/29 17:28:57;;;;;;;11.00;2.58;;;22.80;84.30;;;;;;11944966;28;20061;-52
2021/08/29 17:34:47;;;;;;;5.75;2.20;;;22.30;85.00;;;;;;11937351;28;20517;-56
2021/08/29 17:40:36;;;;;;;4.82;2.00;;;21.80;86.40;;;;;;11936343;28;20049;-54
2021/08/29 17:46:27;;;;;;;8.38;2.40;;;21.70;86.10;;;;;;11915974;28;20441;-54
2021/08/29 17:52:14;;;;;;;5.22;2.38;;;21.40;86.00;;;;;;11904813;28;20049;-55
2021/08/29 17:58:00;;;;;;;6.18;2.95;;;21.20;86.00;;;;;;11888558;28;20050;-55
2021/08/29 18:03:49;;;;;;;5.57;2.40;;;21.40;86.20;;;;;;11888005;28;20054;-55
2021/08/29 18:09:36;;;;;;;9.82;3.03;;;21.20;86.90;;;;;;11936088;28;20046;-53
2021/08/29 18:15:22;;;;;;;5.60;2.65;;;21.00;87.20;;;;;;11912888;28;20054;-55
2021/08/29 18:21:11;;;;;;;4.88;2.60;;;21.30;87.50;;;;;;11938158;28;20053;-56
2021/08/29 18:26:58;;;;;;;6.80;2.72;;;21.10;87.30;;;;;;11938783;28;20490;-54
2021/08/29 18:38:48;;;;;;;7.90;3.60;;;21.30;88.20;;;;;;11891360;28;20065;-54
2021/08/29 18:50:37;;;;;;;8.75;2.72;;;21.30;89.00;;;;;;11892323;28;20072;-56
2021/08/29 18:56:26;;;;;;;8.57;2.90;;;21.20;89.50;;;;;;11886312;28;20103;-54
2021/08/29 19:02:13;;;;;;;5.28;2.70;;;21.10;90.00;;;;;;11886573;28;20054;-54
2021/08/29 19:08:03;;;;;;;8.80;2.95;;;21.20;89.80;;;;;;11889078;28;20061;-52
2021/08/29 19:13:51;;;;;;;12.52;2.92;;;21.20;89.70;;;;;;11938073;28;20057;-53
2021/08/29 19:19:38;;;;;;;10.70;3.13;;;21.20;89.50;;;;;;11936117;28;20188;-54
2021/08/29 19:25:25;;;;;;;9.82;2.67;;;21.00;89.50;;;;;;11922381;28;20046;-54
2021/08/29 19:31:16;;;;;;;7.25;2.83;;;20.80;90.00;;;;;;11935115;28;21222;-53
2021/08/29 19:37:04;;;;;;;8.68;3.10;;;21.00;90.10;;;;;;11903817;28;20062;-55
2021/08/29 19:42:51;;;;;;;7.07;2.60;;;21.10;89.90;;;;;;11884093;28;20057;-54
2021/08/29 19:48:39;;;;;;;21.15;3.15;;;21.10;90.00;;;;;;11884792;28;20042;-53
2021/08/29 19:54:26;;;;;;;7.75;2.70;;;21.10;90.00;;;;;;11910441;28;20060;-54
2021/08/29 20:00:14;;;;;;;7.28;2.78;;;21.10;90.00;;;;;;11885860;28;20434;-54
2021/08/29 20:06:02;;;;;;;9.02;3.35;;;21.10;90.00;;;;;;11884562;28;20145;-51
2021/08/29 20:11:49;;;;;;;8.20;2.95;;;21.00;90.10;;;;;;11905553;28;20086;-54
2021/08/29 20:17:36;;;;;;;8.48;2.90;;;21.00;90.30;;;;;;11931438;28;20061;-54
2021/08/29 20:23:24;;;;;;;7.50;2.60;;;21.10;90.20;;;;;;11915497;28;20108;-54
2021/08/29 20:29:11;;;;;;;8.07;2.70;;;20.80;90.30;;;;;;11883552;28;20050;-54
2021/08/29 20:34:58;;;;;;;5.90;2.72;;;20.60;90.50;;;;;;11884860;28;20632;-56
2021/08/29 20:40:46;;;;;;;9.88;2.90;;;20.80;90.40;;;;;;11877821;28;20077;-55
2021/08/29 20:46:37;;;;;;;5.70;2.53;;;21.00;90.30;;;;;;11894767;28;20061;-53
2021/08/29 20:52:24;;;;;;;9.70;2.90;;;21.10;90.30;;;;;;11895433;28;20053;-54
2021/08/29 20:58:12;;;;;;;12.35;3.22;;;21.00;90.40;;;;;;11916391;28;20056;-53
2021/08/29 21:04:01;;;;;;;8.07;3.40;;;20.80;90.60;;;;;;11928859;28;20045;-56
2021/08/29 21:09:47;;;;;;;15.63;4.82;;;20.90;90.70;;;;;;11933665;28;20509;-52
2021/08/29 21:15:36;;;;;;;8.35;4.68;;;20.90;90.60;;;;;;11930005;28;20050;-54
2021/08/29 21:21:33;;;;;;;13.90;4.60;;;21.00;90.60;;;;;;11884952;28;20597;-53
2021/08/29 21:27:20;;;;;;;13.57;7.25;;;20.90;90.70;;;;;;11910416;28;20041;-55
2021/08/29 21:33:09;;;;;;;18.08;5.30;;;20.80;90.80;;;;;;11883138;28;20050;-52
2021/08/29 21:38:56;;;;;;;12.30;4.78;;;20.70;91.10;;;;;;11884177;28;20053;-53
2021/08/29 21:44:42;;;;;;;8.73;3.95;;;20.70;91.30;;;;;;11884895;28;20049;-53
2021/08/29 21:50:31;;;;;;;9.43;3.30;;;20.50;91.50;;;;;;11889975;28;20054;-54
2021/08/29 21:56:19;;;;;;;7.93;3.38;;;20.50;91.70;;;;;;11893301;28;20041;-54
2021/08/29 22:02:06;;;;;;;5.80;3.05;;;20.50;91.90;;;;;;11887077;28;20049;-51
2021/08/29 22:07:54;;;;;;;8.93;2.63;;;20.60;91.80;;;;;;11887399;28;20050;-54
2021/08/29 22:13:41;;;;;;;5.95;2.83;;;20.60;91.90;;;;;;11893598;28;20402;-52
2021/08/29 22:19:32;;;;;;;17.10;2.70;;;20.70;91.70;;;;;;11903766;28;20053;-54
2021/08/29 22:25:20;;;;;;;10.13;2.80;;;20.70;91.70;;;;;;11935508;28;20053;-51
2021/08/29 22:31:07;;;;;;;10.90;2.70;;;20.50;91.90;;;;;;11936176;28;20080;-64
2021/08/29 22:36:54;;;;;;;15.85;5.32;;;20.50;92.00;;;;;;11905181;28;20053;-52
2021/08/29 22:42:42;;;;;;;7.95;3.00;;;20.40;92.30;;;;;;11885657;28;20053;-52
2021/08/29 22:48:29;;;;;;;14.18;2.72;;;20.10;92.70;;;;;;11914207;28;20077;-54
2021/08/29 22:54:16;;;;;;;12.82;2.83;;;20.00;93.00;;;;;;11928655;28;20048;-51
2021/08/29 23:00:06;;;;;;;13.55;3.30;;;20.10;93.00;;;;;;11937109;28;20041;-55
2021/08/29 23:05:53;;;;;;;10.70;3.35;;;20.00;93.20;;;;;;11937491;28;20053;-54
2021/08/29 23:11:40;;;;;;;8.48;3.15;;;19.90;93.40;;;;;;11906811;28;20505;-52
